sensor_id;sensor_type;location;lat;lon;timestamp;pressure;altitude;pressure_sealevel;temperature;humidity
38716;BME280;24833;49.324;8.694;2023-08-30T00:01:24;99179.44;;;15.20;86.27
38716;BME280;24833;49.324;8.694;2023-08-30T00:03:51;99169.50;;;15.20;86.43
38716;BME280;24833;49.324;8.694;2023-08-30T00:06:18;99166.00;;;15.20;87.10
38716;BME280;24833;49.324;8.694;2023-08-30T00:08:45;99167.63;;;15.21;86.77
38716;BME280;24833;49.324;8.694;2023-08-30T00:11:13;99168.44;;;15.21;86.97
38716;BME280;24833;49.324;8.694;2023-08-30T00:13:41;99169.25;;;15.22;87.31
38716;BME280;24833;49.324;8.694;2023-08-30T00:16:09;99164.44;;;15.24;88.35
38716;BME280;24833;49.324;8.694;2023-08-30T00:18:36;99168.78;;;15.25;88.60
38716;BME280;24833;49.324;8.694;2023-08-30T00:21:03;99170.41;;;15.26;89.51
38716;BME280;24833;49.324;8.694;2023-08-30T00:23:30;99165.03;;;15.26;89.04
38716;BME280;24833;49.324;8.694;2023-08-30T00:25:57;99170.41;;;15.26;88.68
38716;BME280;24833;49.324;8.694;2023-08-30T00:28:24;99168.28;;;15.28;89.72
38716;BME280;24833;49.324;8.694;2023-08-30T00:30:55;99165.59;;;15.28;90.36
38716;BME280;24833;49.324;8.694;2023-08-30T00:33:23;99164.53;;;15.29;91.18
38716;BME280;24833;49.324;8.694;2023-08-30T00:35:58;99161.03;;;15.29;90.88
38716;BME280;24833;49.324;8.694;2023-08-30T00:38:27;99157.53;;;15.28;90.77
38716;BME280;24833;49.324;8.694;2023-08-30T00:40:55;99155.91;;;15.27;91.37
38716;BME280;24833;49.324;8.694;2023-08-30T00:43:22;99154.28;;;15.26;90.40
38716;BME280;24833;49.324;8.694;2023-08-30T00:45:49;99156.16;;;15.25;90.50
38716;BME280;24833;49.324;8.694;2023-08-30T00:48:20;99149.97;;;15.25;90.32
38716;BME280;24833;49.324;8.694;2023-08-30T00:50:48;99151.00;;;15.24;89.17
38716;BME280;24833;49.324;8.694;2023-08-30T00:53:15;99152.66;;;15.25;89.17
38716;BME280;24833;49.324;8.694;2023-08-30T00:55:44;99150.78;;;15.25;89.02
38716;BME280;24833;49.324;8.694;2023-08-30T00:58:11;99147.84;;;15.27;88.98
38716;BME280;24833;49.324;8.694;2023-08-30T01:00:39;99143.50;;;15.26;89.46
38716;BME280;24833;49.324;8.694;2023-08-30T01:03:09;99138.69;;;15.28;88.71
38716;BME280;24833;49.324;8.694;2023-08-30T01:05:37;99132.50;;;15.27;88.91
38716;BME280;24833;49.324;8.694;2023-08-30T01:08:04;99138.69;;;15.28;88.75
38716;BME280;24833;49.324;8.694;2023-08-30T01:10:50;99140.56;;;15.27;89.01
38716;BME280;24833;49.324;8.694;2023-08-30T01:13:20;99140.56;;;15.27;88.68
38716;BME280;24833;49.324;8.694;2023-08-30T01:15:48;99139.75;;;15.27;88.77
38716;BME280;24833;49.324;8.694;2023-08-30T01:18:18;99135.44;;;15.26;88.49
38716;BME280;24833;49.324;8.694;2023-08-30T01:20:49;99131.13;;;15.25;88.57
38716;BME280;24833;49.324;8.694;2023-08-30T01:23:24;99139.19;;;15.25;88.74
38716;BME280;24833;49.324;8.694;2023-08-30T01:26:12;99136.50;;;15.25;88.86
38716;BME280;24833;49.324;8.694;2023-08-30T01:28:42;99135.44;;;15.26;88.85
38716;BME280;24833;49.324;8.694;2023-08-30T01:31:09;99132.75;;;15.26;88.54
38716;BME280;24833;49.324;8.694;2023-08-30T01:33:38;99125.75;;;15.25;89.16
38716;BME280;24833;49.324;8.694;2023-08-30T01:36:06;99129.47;;;15.24;88.62
38716;BME280;24833;49.324;8.694;2023-08-30T01:38:34;99129.47;;;15.24;88.40
38716;BME280;24833;49.324;8.694;2023-08-30T01:41:02;99127.84;;;15.23;89.01
38716;BME280;24833;49.324;8.694;2023-08-30T01:43:30;99120.84;;;15.22;88.45
38716;BME280;24833;49.324;8.694;2023-08-30T01:45:59;99124.59;;;15.21;88.57
38716;BME280;24833;49.324;8.694;2023-08-30T01:48:29;99122.97;;;15.20;88.42
38716;BME280;24833;49.324;8.694;2023-08-30T01:50:56;99118.66;;;15.19;89.43
38716;BME280;24833;49.324;8.694;2023-08-30T01:53:27;99121.56;;;15.17;89.35
38716;BME280;24833;49.324;8.694;2023-08-30T01:55:55;99117.22;;;15.16;89.19
38716;BME280;24833;49.324;8.694;2023-08-30T01:58:22;99109.41;;;15.15;88.95
38716;BME280;24833;49.324;8.694;2023-08-30T02:00:49;99116.41;;;15.16;88.90
38716;BME280;24833;49.324;8.694;2023-08-30T02:03:16;99110.22;;;15.15;88.81
38716;BME280;24833;49.324;8.694;2023-08-30T02:06:07;99111.53;;;15.13;88.29
38716;BME280;24833;49.324;8.694;2023-08-30T02:08:41;99112.34;;;15.13;88.59
38716;BME280;24833;49.324;8.694;2023-08-30T02:11:16;99110.94;;;15.11;88.65
38716;BME280;24833;49.324;8.694;2023-08-30T02:13:46;99112.59;;;15.12;89.22
38716;BME280;24833;49.324;8.694;2023-08-30T02:16:13;99109.09;;;15.11;89.05
38716;BME280;24833;49.324;8.694;2023-08-30T02:18:42;99111.19;;;15.09;89.28
38716;BME280;24833;49.324;8.694;2023-08-30T02:21:09;99112.00;;;15.10;90.04
38716;BME280;24833;49.324;8.694;2023-08-30T02:23:36;99116.56;;;15.09;90.32
38716;BME280;24833;49.324;8.694;2023-08-30T02:26:03;99107.94;;;15.07;89.72
38716;BME280;24833;49.324;8.694;2023-08-30T02:28:30;99109.81;;;15.07;89.16
38716;BME280;24833;49.324;8.694;2023-08-30T02:30:58;99112.50;;;15.07;89.36
38716;BME280;24833;49.324;8.694;2023-08-30T02:33:25;99117.06;;;15.06;89.80
38716;BME280;24833;49.324;8.694;2023-08-30T02:35:52;99113.56;;;15.06;89.40
38716;BME280;24833;49.324;8.694;2023-08-30T02:38:20;99119.16;;;15.04;90.85
38716;BME280;24833;49.324;8.694;2023-08-30T02:40:48;99118.34;;;15.04;89.38
38716;BME280;24833;49.324;8.694;2023-08-30T02:43:16;99114.84;;;15.03;90.13
38716;BME280;24833;49.324;8.694;2023-08-30T02:45:44;99112.16;;;15.03;90.13
38716;BME280;24833;49.324;8.694;2023-08-30T02:48:11;99110.28;;;15.04;90.76
38716;BME280;24833;49.324;8.694;2023-08-30T02:50:40;99116.72;;;15.03;91.05
38716;BME280;24833;49.324;8.694;2023-08-30T02:53:07;99112.66;;;15.00;90.71
38716;BME280;24833;49.324;8.694;2023-08-30T02:55:35;99117.22;;;14.99;91.41
38716;BME280;24833;49.324;8.694;2023-08-30T02:58:03;99127.16;;;14.99;91.68
38716;BME280;24833;49.324;8.694;2023-08-30T03:00:30;99117.69;;;14.96;91.26
38716;BME280;24833;49.324;8.694;2023-08-30T03:02:57;99115.81;;;14.97;91.08
38716;BME280;24833;49.324;8.694;2023-08-30T03:05:24;99116.03;;;14.95;90.96
38716;BME280;24833;49.324;8.694;2023-08-30T03:07:53;99119.78;;;14.94;90.53
38716;BME280;24833;49.324;8.694;2023-08-30T03:10:22;99121.44;;;14.95;90.78
38716;BME280;24833;49.324;8.694;2023-08-30T03:12:50;99119.78;;;14.94;90.95
38716;BME280;24833;49.324;8.694;2023-08-30T03:15:18;99120.59;;;14.95;91.56
38716;BME280;24833;49.324;8.694;2023-08-30T03:17:45;99110.91;;;14.94;91.67
38716;BME280;24833;49.324;8.694;2023-08-30T03:20:13;99121.91;;;14.92;92.03
38716;BME280;24833;49.324;8.694;2023-08-30T03:22:40;99113.84;;;14.92;92.24
38716;BME280;24833;49.324;8.694;2023-08-30T03:25:07;99115.13;;;14.90;92.16
38716;BME280;24833;49.324;8.694;2023-08-30T03:27:37;99124.00;;;14.90;92.15
38716;BME280;24833;49.324;8.694;2023-08-30T03:30:05;99117.00;;;14.89;92.98
38716;BME280;24833;49.324;8.694;2023-08-30T03:32:33;99122.63;;;14.88;92.87
38716;BME280;24833;49.324;8.694;2023-08-30T03:35:01;99118.31;;;14.87;92.85
38716;BME280;24833;49.324;8.694;2023-08-30T03:37:30;99116.69;;;14.86;92.16
38716;BME280;24833;49.324;8.694;2023-08-30T03:39:57;99119.59;;;14.84;93.17
38716;BME280;24833;49.324;8.694;2023-08-30T03:42:24;99124.97;;;14.84;94.11
38716;BME280;24833;49.324;8.694;2023-08-30T03:44:51;99117.97;;;14.83;93.34
38716;BME280;24833;49.324;8.694;2023-08-30T03:47:18;99116.34;;;14.82;93.13
38716;BME280;24833;49.324;8.694;2023-08-30T03:49:45;99114.69;;;14.81;93.64
38716;BME280;24833;49.324;8.694;2023-08-30T03:52:13;99118.44;;;14.80;93.90
38716;BME280;24833;49.324;8.694;2023-08-30T03:54:40;99115.19;;;14.78;93.47
38716;BME280;24833;49.324;8.694;2023-08-30T03:57:07;99119.50;;;14.79;93.48
38716;BME280;24833;49.324;8.694;2023-08-30T03:59:34;99107.13;;;14.78;93.97
38716;BME280;24833;49.324;8.694;2023-08-30T04:02:02;99111.91;;;14.76;94.67
38716;BME280;24833;49.324;8.694;2023-08-30T04:04:29;99116.47;;;14.76;93.65
38716;BME280;24833;49.324;8.694;2023-08-30T04:06:56;99110.28;;;14.75;94.33
38716;BME280;24833;49.324;8.694;2023-08-30T04:09:23;99110.28;;;14.75;94.64
38716;BME280;24833;49.324;8.694;2023-08-30T04:11:50;99104.34;;;14.73;94.44
38716;BME280;24833;49.324;8.694;2023-08-30T04:14:17;99112.41;;;14.73;93.54
38716;BME280;24833;49.324;8.694;2023-08-30T04:16:44;99119.66;;;14.73;94.43
38716;BME280;24833;49.324;8.694;2023-08-30T04:19:11;99114.50;;;14.71;94.16
38716;BME280;24833;49.324;8.694;2023-08-30T04:21:38;99118.25;;;14.70;94.07
38716;BME280;24833;49.324;8.694;2023-08-30T04:24:05;99116.59;;;14.69;93.96
38716;BME280;24833;49.324;8.694;2023-08-30T04:26:33;99113.91;;;14.69;93.72
38716;BME280;24833;49.324;8.694;2023-08-30T04:29:00;99113.34;;;14.67;93.96
38716;BME280;24833;49.324;8.694;2023-08-30T04:31:30;99112.53;;;14.66;93.78
38716;BME280;24833;49.324;8.694;2023-08-30T04:33:57;99117.09;;;14.66;94.00
38716;BME280;24833;49.324;8.694;2023-08-30T04:36:24;99112.78;;;14.65;94.26
38716;BME280;24833;49.324;8.694;2023-08-30T04:38:51;99119.19;;;14.64;94.32
38716;BME280;24833;49.324;8.694;2023-08-30T04:41:29;99112.19;;;14.63;93.95
38716;BME280;24833;49.324;8.694;2023-08-30T04:43:56;99110.56;;;14.62;94.37
38716;BME280;24833;49.324;8.694;2023-08-30T04:46:23;99109.75;;;14.61;94.86
38716;BME280;24833;49.324;8.694;2023-08-30T04:48:51;99110.00;;;14.60;94.25
38716;BME280;24833;49.324;8.694;2023-08-30T04:51:18;99104.84;;;14.58;94.81
38716;BME280;24833;49.324;8.694;2023-08-30T04:53:46;99099.47;;;14.58;94.84
38716;BME280;24833;49.324;8.694;2023-08-30T04:56:13;99109.41;;;14.58;94.86
38716;BME280;24833;49.324;8.694;2023-08-30T04:58:41;99104.25;;;14.56;94.54
38716;BME280;24833;49.324;8.694;2023-08-30T05:01:10;99104.25;;;14.56;95.08
38716;BME280;24833;49.324;8.694;2023-08-30T05:03:42;99104.25;;;14.56;94.97
38716;BME280;24833;49.324;8.694;2023-08-30T05:06:12;99102.88;;;14.54;94.79
38716;BME280;24833;49.324;8.694;2023-08-30T05:08:43;99108.81;;;14.56;95.39
38716;BME280;24833;49.324;8.694;2023-08-30T05:11:10;99104.50;;;14.55;94.42
38716;BME280;24833;49.324;8.694;2023-08-30T05:13:37;99116.06;;;14.55;95.14
38716;BME280;24833;49.324;8.694;2023-08-30T05:16:05;99113.13;;;14.57;95.22
38716;BME280;24833;49.324;8.694;2023-08-30T05:18:32;99114.78;;;14.58;95.08
38716;BME280;24833;49.324;8.694;2023-08-30T05:21:01;99111.03;;;14.59;95.43
38716;BME280;24833;49.324;8.694;2023-08-30T05:23:32;99102.38;;;14.57;95.46
38716;BME280;24833;49.324;8.694;2023-08-30T05:25:59;99107.31;;;14.60;95.52
38716;BME280;24833;49.324;8.694;2023-08-30T05:28:26;99110.00;;;14.60;96.41
38716;BME280;24833;49.324;8.694;2023-08-30T05:30:53;99110.56;;;14.62;95.63
38716;BME280;24833;49.324;8.694;2023-08-30T05:33:30;99105.75;;;14.64;94.96
38716;BME280;24833;49.324;8.694;2023-08-30T05:36:35;99100.97;;;14.66;95.21
38716;BME280;24833;49.324;8.694;2023-08-30T05:39:21;99101.53;;;14.68;94.48
38716;BME280;24833;49.324;8.694;2023-08-30T05:41:54;99098.38;;;14.71;95.35
38716;BME280;24833;49.324;8.694;2023-08-30T05:44:21;99105.97;;;14.74;94.65
38716;BME280;24833;49.324;8.694;2023-08-30T05:46:48;99108.16;;;14.77;94.73
38716;BME280;24833;49.324;8.694;2023-08-30T05:49:15;99102.78;;;14.77;95.00
38716;BME280;24833;49.324;8.694;2023-08-30T05:51:44;99111.19;;;14.81;94.63
38716;BME280;24833;49.324;8.694;2023-08-30T05:54:12;99111.78;;;14.83;94.68
38716;BME280;24833;49.324;8.694;2023-08-30T05:56:40;99114.22;;;14.84;94.24
38716;BME280;24833;49.324;8.694;2023-08-30T05:59:08;99110.50;;;14.85;94.72
38716;BME280;24833;49.324;8.694;2023-08-30T06:01:36;99113.75;;;14.87;94.67
38716;BME280;24833;49.324;8.694;2023-08-30T06:04:03;99112.69;;;14.88;94.35
38716;BME280;24833;49.324;8.694;2023-08-30T06:06:31;99108.94;;;14.89;95.09
38716;BME280;24833;49.324;8.694;2023-08-30T06:08:58;99104.38;;;14.90;95.03
38716;BME280;24833;49.324;8.694;2023-08-30T06:11:26;99109.53;;;14.91;95.16
38716;BME280;24833;49.324;8.694;2023-08-30T06:13:53;99104.16;;;14.91;94.62
38716;BME280;24833;49.324;8.694;2023-08-30T06:16:20;99104.72;;;14.93;94.52
38716;BME280;24833;49.324;8.694;2023-08-30T06:18:47;99104.47;;;14.95;94.63
38716;BME280;24833;49.324;8.694;2023-08-30T06:21:14;99107.97;;;14.95;94.42
38716;BME280;24833;49.324;8.694;2023-08-30T06:23:41;99108.53;;;14.97;94.20
38716;BME280;24833;49.324;8.694;2023-08-30T06:26:08;99104.81;;;14.98;94.23
38716;BME280;24833;49.324;8.694;2023-08-30T06:28:35;99104.34;;;15.02;94.26
38716;BME280;24833;49.324;8.694;2023-08-30T06:31:04;99108.66;;;15.03;94.76
38716;BME280;24833;49.324;8.694;2023-08-30T06:33:31;99105.97;;;15.03;94.37
38716;BME280;24833;49.324;8.694;2023-08-30T06:35:58;99114.63;;;15.05;94.64
38716;BME280;24833;49.324;8.694;2023-08-30T06:38:25;99114.13;;;15.08;94.19
38716;BME280;24833;49.324;8.694;2023-08-30T06:40:52;99108.50;;;15.09;94.36
38716;BME280;24833;49.324;8.694;2023-08-30T06:43:20;99116.09;;;15.12;94.69
38716;BME280;24833;49.324;8.694;2023-08-30T06:45:47;99114.22;;;15.13;94.92
38716;BME280;24833;49.324;8.694;2023-08-30T06:48:14;99114.78;;;15.15;94.64
38716;BME280;24833;49.324;8.694;2023-08-30T06:50:41;99103.78;;;15.16;94.20
38716;BME280;24833;49.324;8.694;2023-08-30T06:53:08;99108.91;;;15.18;94.87
38716;BME280;24833;49.324;8.694;2023-08-30T06:55:36;99100.38;;;15.21;94.42
38716;BME280;24833;49.324;8.694;2023-08-30T06:58:05;99091.81;;;15.24;94.83
38716;BME280;24833;49.324;8.694;2023-08-30T07:00:32;99090.53;;;15.26;94.54
38716;BME280;24833;49.324;8.694;2023-08-30T07:02:59;99088.41;;;15.29;94.75
38716;BME280;24833;49.324;8.694;2023-08-30T07:05:26;99090.84;;;15.30;94.68
38716;BME280;24833;49.324;8.694;2023-08-30T07:07:53;99090.38;;;15.33;95.44
38716;BME280;24833;49.324;8.694;2023-08-30T07:10:20;99100.88;;;15.35;95.01
38716;BME280;24833;49.324;8.694;2023-08-30T07:12:47;99099.00;;;15.35;94.42
38716;BME280;24833;49.324;8.694;2023-08-30T07:15:16;99102.25;;;15.37;94.43
38716;BME280;24833;49.324;8.694;2023-08-30T07:17:44;99100.16;;;15.39;94.37
38716;BME280;24833;49.324;8.694;2023-08-30T07:20:14;99101.78;;;15.40;94.45
38716;BME280;24833;49.324;8.694;2023-08-30T07:22:41;99092.66;;;15.41;94.56
38716;BME280;24833;49.324;8.694;2023-08-30T07:25:08;99102.09;;;15.44;94.88
38716;BME280;24833;49.324;8.694;2023-08-30T07:27:36;99098.13;;;15.46;94.65
38716;BME280;24833;49.324;8.694;2023-08-30T07:30:04;99101.38;;;15.48;94.65
38716;BME280;24833;49.324;8.694;2023-08-30T07:32:32;99089.31;;;15.51;94.37
38716;BME280;24833;49.324;8.694;2023-08-30T07:34:59;99091.53;;;15.54;94.80
38716;BME280;24833;49.324;8.694;2023-08-30T07:37:26;99100.16;;;15.56;94.62
38716;BME280;24833;49.324;8.694;2023-08-30T07:39:53;99098.88;;;15.59;94.60
38716;BME280;24833;49.324;8.694;2023-08-30T07:42:20;99096.53;;;15.62;94.93
38716;BME280;24833;49.324;8.694;2023-08-30T07:44:47;99095.22;;;15.65;94.78
38716;BME280;24833;49.324;8.694;2023-08-30T07:47:14;99092.84;;;15.68;94.74
38716;BME280;24833;49.324;8.694;2023-08-30T07:49:41;99096.91;;;15.71;94.61
38716;BME280;24833;49.324;8.694;2023-08-30T07:52:09;99091.53;;;15.71;94.30
38716;BME280;24833;49.324;8.694;2023-08-30T07:54:39;99100.19;;;15.73;94.71
38716;BME280;24833;49.324;8.694;2023-08-30T07:57:07;99093.50;;;15.75;94.28
38716;BME280;24833;49.324;8.694;2023-08-30T07:59:36;99089.47;;;15.78;94.90
38716;BME280;24833;49.324;8.694;2023-08-30T08:02:04;99090.06;;;15.80;94.69
38716;BME280;24833;49.324;8.694;2023-08-30T08:04:34;99091.69;;;15.81;94.41
38716;BME280;24833;49.324;8.694;2023-08-30T08:07:03;99096.56;;;15.84;94.70
38716;BME280;24833;49.324;8.694;2023-08-30T08:09:31;99098.53;;;15.89;94.76
38716;BME280;24833;49.324;8.694;2023-08-30T08:11:59;99095.13;;;15.93;94.97
38716;BME280;24833;49.324;8.694;2023-08-30T08:14:26;99097.88;;;15.98;95.19
38716;BME280;24833;49.324;8.694;2023-08-30T08:16:54;99102.50;;;16.03;94.91
38716;BME280;24833;49.324;8.694;2023-08-30T08:19:21;99107.41;;;16.06;94.69
38716;BME280;24833;49.324;8.694;2023-08-30T08:21:52;99105.63;;;16.12;94.71
38716;BME280;24833;49.324;8.694;2023-08-30T08:24:21;99103.22;;;16.15;94.88
38716;BME280;24833;49.324;8.694;2023-08-30T08:26:48;99105.19;;;16.20;94.92
38716;BME280;24833;49.324;8.694;2023-08-30T08:29:15;99106.06;;;16.25;95.02
38716;BME280;24833;49.324;8.694;2023-08-30T08:31:42;99102.63;;;16.30;94.96
38716;BME280;24833;49.324;8.694;2023-08-30T08:34:11;99103.75;;;16.34;95.03
38716;BME280;24833;49.324;8.694;2023-08-30T08:36:42;99109.22;;;16.39;95.12
38716;BME280;24833;49.324;8.694;2023-08-30T08:39:09;99096.59;;;16.45;94.93
38716;BME280;24833;49.324;8.694;2023-08-30T08:41:42;99098.06;;;16.52;95.11
38716;BME280;24833;49.324;8.694;2023-08-30T08:44:10;99097.63;;;16.60;95.38
38716;BME280;24833;49.324;8.694;2023-08-30T08:46:40;99105.03;;;16.70;95.15
38716;BME280;24833;49.324;8.694;2023-08-30T08:49:13;99104.84;;;16.77;95.60
38716;BME280;24833;49.324;8.694;2023-08-30T08:51:42;99110.84;;;16.84;95.27
38716;BME280;24833;49.324;8.694;2023-08-30T08:54:11;99105.25;;;16.91;95.11
38716;BME280;24833;49.324;8.694;2023-08-30T08:56:39;99108.81;;;16.96;94.69
38716;BME280;24833;49.324;8.694;2023-08-30T08:59:06;99098.66;;;17.03;94.60
38716;BME280;24833;49.324;8.694;2023-08-30T09:01:35;99108.97;;;17.11;94.93
38716;BME280;24833;49.324;8.694;2023-08-30T09:04:10;99109.63;;;17.19;94.93
38716;BME280;24833;49.324;8.694;2023-08-30T09:06:38;99099.44;;;17.26;95.06
38716;BME280;24833;49.324;8.694;2023-08-30T09:09:11;99113.00;;;17.36;95.10
38716;BME280;24833;49.324;8.694;2023-08-30T09:11:38;99113.59;;;17.43;94.53
38716;BME280;24833;49.324;8.694;2023-08-30T09:14:17;99112.06;;;17.52;94.08
38716;BME280;24833;49.324;8.694;2023-08-30T09:17:14;99101.88;;;17.59;94.28
38716;BME280;24833;49.324;8.694;2023-08-30T09:19:41;99108.94;;;17.65;94.32
38716;BME280;24833;49.324;8.694;2023-08-30T09:22:08;99098.75;;;17.73;93.60
38716;BME280;24833;49.324;8.694;2023-08-30T09:24:40;99114.75;;;17.79;93.53
38716;BME280;24833;49.324;8.694;2023-08-30T09:27:07;99112.06;;;17.84;92.72
38716;BME280;24833;49.324;8.694;2023-08-30T09:29:35;99115.06;;;17.88;92.85
38716;BME280;24833;49.324;8.694;2023-08-30T09:32:02;99107.50;;;17.90;92.70
38716;BME280;24833;49.324;8.694;2023-08-30T09:34:29;99095.13;;;17.94;92.87
38716;BME280;24833;49.324;8.694;2023-08-30T09:36:56;99101.13;;;18.01;93.28
38716;BME280;24833;49.324;8.694;2023-08-30T09:39:26;99092.78;;;18.08;93.25
38716;BME280;24833;49.324;8.694;2023-08-30T09:41:54;99103.06;;;18.11;91.77
38716;BME280;24833;49.324;8.694;2023-08-30T09:44:22;99097.94;;;18.14;91.94
38716;BME280;24833;49.324;8.694;2023-08-30T09:46:53;99099.03;;;18.18;91.82
38716;BME280;24833;49.324;8.694;2023-08-30T09:49:25;99100.97;;;18.23;92.11
38716;BME280;24833;49.324;8.694;2023-08-30T09:51:54;99096.69;;;18.27;92.38
38716;BME280;24833;49.324;8.694;2023-08-30T09:54:45;99092.66;;;18.35;92.11
38716;BME280;24833;49.324;8.694;2023-08-30T09:57:13;99088.09;;;18.40;92.39
38716;BME280;24833;49.324;8.694;2023-08-30T09:59:42;99100.81;;;18.50;92.73
38716;BME280;24833;49.324;8.694;2023-08-30T10:02:10;99085.97;;;18.58;92.19
38716;BME280;24833;49.324;8.694;2023-08-30T10:04:43;99085.72;;;18.64;92.37
38716;BME280;24833;49.324;8.694;2023-08-30T10:07:11;99082.81;;;18.71;91.81
38716;BME280;24833;49.324;8.694;2023-08-30T10:09:39;99079.03;;;18.77;92.35
38716;BME280;24833;49.324;8.694;2023-08-30T10:12:26;99082.03;;;18.86;90.63
38716;BME280;24833;49.324;8.694;2023-08-30T10:14:54;99071.78;;;18.93;91.82
38716;BME280;24833;49.324;8.694;2023-08-30T10:17:31;99081.00;;;19.02;91.73
38716;BME280;24833;49.324;8.694;2023-08-30T10:19:59;99072.34;;;19.10;91.20
38716;BME280;24833;49.324;8.694;2023-08-30T10:22:31;99071.00;;;19.18;91.75
38716;BME280;24833;49.324;8.694;2023-08-30T10:25:20;99066.69;;;19.27;90.71
38716;BME280;24833;49.324;8.694;2023-08-30T10:27:49;99063.16;;;19.31;89.77
38716;BME280;24833;49.324;8.694;2023-08-30T10:30:19;99069.91;;;19.39;90.69
38716;BME280;24833;49.324;8.694;2023-08-30T10:32:47;99073.44;;;19.45;90.04
38716;BME280;24833;49.324;8.694;2023-08-30T10:35:17;99069.13;;;19.49;89.93
38716;BME280;24833;49.324;8.694;2023-08-30T10:37:56;99062.63;;;19.55;91.08
38716;BME280;24833;49.324;8.694;2023-08-30T10:40:23;99060.47;;;19.62;90.77
38716;BME280;24833;49.324;8.694;2023-08-30T10:43:04;99064.28;;;19.66;89.56
38716;BME280;24833;49.324;8.694;2023-08-30T10:45:31;99067.00;;;19.66;87.92
38716;BME280;24833;49.324;8.694;2023-08-30T10:48:00;99054.78;;;19.64;87.89
38716;BME280;24833;49.324;8.694;2023-08-30T10:50:30;99053.97;;;19.63;86.73
38716;BME280;24833;49.324;8.694;2023-08-30T10:52:58;99050.72;;;19.61;86.59
38716;BME280;24833;49.324;8.694;2023-08-30T10:55:25;99055.34;;;19.61;87.00
38716;BME280;24833;49.324;8.694;2023-08-30T10:58:03;99055.06;;;19.62;88.16
38716;BME280;24833;49.324;8.694;2023-08-30T11:00:31;99054.78;;;19.64;86.66
38716;BME280;24833;49.324;8.694;2023-08-30T11:02:59;99041.53;;;19.67;87.87
38716;BME280;24833;49.324;8.694;2023-08-30T11:05:26;99033.09;;;19.74;87.76
38716;BME280;24833;49.324;8.694;2023-08-30T11:07:55;99033.91;;;19.79;88.34
38716;BME280;24833;49.324;8.694;2023-08-30T11:10:22;99030.63;;;19.88;88.48
38716;BME280;24833;49.324;8.694;2023-08-30T11:12:49;99029.78;;;19.97;87.83
38716;BME280;24833;49.324;8.694;2023-08-30T11:15:17;99023.78;;;20.05;87.93
38716;BME280;24833;49.324;8.694;2023-08-30T11:17:45;99016.72;;;20.14;88.67
38716;BME280;24833;49.324;8.694;2023-08-30T11:20:15;99016.69;;;20.25;87.04
38716;BME280;24833;49.324;8.694;2023-08-30T11:22:46;99019.66;;;20.33;87.53
38716;BME280;24833;49.324;8.694;2023-08-30T11:25:15;99009.28;;;20.40;86.91
38716;BME280;24833;49.324;8.694;2023-08-30T11:27:43;99005.75;;;20.45;86.40
38716;BME280;24833;49.324;8.694;2023-08-30T11:30:11;99006.53;;;20.51;87.85
38716;BME280;24833;49.324;8.694;2023-08-30T11:32:41;99008.97;;;20.57;87.54
38716;BME280;24833;49.324;8.694;2023-08-30T11:35:10;99001.03;;;20.66;86.79
38716;BME280;24833;49.324;8.694;2023-08-30T11:37:37;99009.44;;;20.70;86.83
38716;BME280;24833;49.324;8.694;2023-08-30T11:40:07;99005.34;;;20.72;86.02
38716;BME280;24833;49.324;8.694;2023-08-30T11:42:34;98998.84;;;20.73;83.28
38716;BME280;24833;49.324;8.694;2023-08-30T11:45:01;98992.53;;;20.78;85.17
38716;BME280;24833;49.324;8.694;2023-08-30T11:47:29;98986.81;;;20.84;86.28
38716;BME280;24833;49.324;8.694;2023-08-30T11:49:57;98991.38;;;20.94;85.96
38716;BME280;24833;49.324;8.694;2023-08-30T11:52:26;98988.03;;;21.02;86.66
38716;BME280;24833;49.324;8.694;2023-08-30T11:54:54;98989.59;;;21.13;84.14
38716;BME280;24833;49.324;8.694;2023-08-30T11:57:22;98984.91;;;21.19;83.54
38716;BME280;24833;49.324;8.694;2023-08-30T11:59:49;98990.00;;;21.26;83.52
38716;BME280;24833;49.324;8.694;2023-08-30T12:02:17;98987.56;;;21.29;82.90
38716;BME280;24833;49.324;8.694;2023-08-30T12:04:46;98985.91;;;21.33;83.06
38716;BME280;24833;49.324;8.694;2023-08-30T12:07:25;98983.13;;;21.38;83.73
38716;BME280;24833;49.324;8.694;2023-08-30T12:10:10;98981.75;;;21.41;84.53
38716;BME280;24833;49.324;8.694;2023-08-30T12:12:38;98975.78;;;21.39;82.35
38716;BME280;24833;49.324;8.694;2023-08-30T12:15:12;98976.03;;;21.42;83.40
38716;BME280;24833;49.324;8.694;2023-08-30T12:17:40;98967.88;;;21.42;80.20
38716;BME280;24833;49.324;8.694;2023-08-30T12:20:16;98976.59;;;21.39;80.20
38716;BME280;24833;49.324;8.694;2023-08-30T12:22:44;98971.44;;;21.38;78.54
38716;BME280;24833;49.324;8.694;2023-08-30T12:25:22;98977.69;;;21.38;80.53
38716;BME280;24833;49.324;8.694;2023-08-30T12:27:53;98973.63;;;21.41;81.21
38716;BME280;24833;49.324;8.694;2023-08-30T12:30:20;98962.41;;;21.47;80.20
38716;BME280;24833;49.324;8.694;2023-08-30T12:32:48;98968.88;;;21.52;80.33
38716;BME280;24833;49.324;8.694;2023-08-30T12:35:15;98960.66;;;21.57;79.32
38716;BME280;24833;49.324;8.694;2023-08-30T12:37:42;98959.56;;;21.58;76.84
38716;BME280;24833;49.324;8.694;2023-08-30T12:40:10;98966.63;;;21.59;80.13
38716;BME280;24833;49.324;8.694;2023-08-30T12:42:37;98969.34;;;21.59;78.20
38716;BME280;24833;49.324;8.694;2023-08-30T12:45:05;98963.34;;;21.62;80.23
38716;BME280;24833;49.324;8.694;2023-08-30T12:47:33;98959.75;;;21.66;77.85
38716;BME280;24833;49.324;8.694;2023-08-30T12:50:01;98960.03;;;21.65;77.91
38716;BME280;24833;49.324;8.694;2023-08-30T12:52:28;98952.69;;;21.65;79.29
38716;BME280;24833;49.324;8.694;2023-08-30T12:54:55;98949.94;;;21.70;80.19
38716;BME280;24833;49.324;8.694;2023-08-30T12:57:22;98947.97;;;21.76;76.45
38716;BME280;24833;49.324;8.694;2023-08-30T12:59:49;98955.53;;;21.79;76.92
38716;BME280;24833;49.324;8.694;2023-08-30T13:02:16;98947.91;;;21.81;77.86
38716;BME280;24833;49.324;8.694;2023-08-30T13:04:44;98946.00;;;21.82;79.41
38716;BME280;24833;49.324;8.694;2023-08-30T13:07:11;98953.84;;;21.83;78.66
38716;BME280;24833;49.324;8.694;2023-08-30T13:09:38;98953.84;;;21.83;76.02